Flight Track Log - Related Links

Times and Time Zones

All times are in EDT time to prevent confusion due to time zone crossing. See the SWA1903 flight status page for this flight to view local times or setup timezone preferences in your user account.

Time Position Orientation Groundspeed Altitude Reporting Facility
EDT Latitude Longitude Course Direction KTS MPH feet Rate Location/Type
Tue 10:03:35 AM 42.2008 -83.3889 270° West 159 183 1,200  Level Cleveland Center
Tue 10:04:30 AM 42.1706 -83.4297 225° Southwest 185 213 2,600 2,243 Climbing Cleveland Center
Tue 10:05:30 AM 42.1275 -83.4922 227° Southwest 239 275 5,500 3,223 Climbing Cleveland Center
Tue 10:06:31 AM 42.0817 -83.5628 229° Southwest 253 291 9,100 2,368 Climbing Cleveland Center
Tue 10:07:24 AM 42.1069 -83.6367 295° West 270 311 10,000 478 Climbing Cleveland Center
Tue 10:08:24 AM 42.1678 -83.6986 323° Northwest 270 311 10,000 800 Level Cleveland Center
Tue 10:09:00 AM 42.4167 -84.1574 270° West  Level FlightAware Approximate
Tue 10:09:24 AM 42.2636 -83.7006 359° North 267 307 11,600  Level Cleveland Center
Tue 10:10:24 AM 42.3525 -83.7331 345° North 300 345 13,000 1,850 Climbing Cleveland Center
Tue 10:11:24 AM 42.3758 -83.8633 284° West 301 346 15,300 2,333 Climbing Cleveland Center
Tue 10:13:24 AM 42.4197 -84.1386 282° West 360 414 20,000 2,200 Climbing Cleveland Center
Tue 10:14:24 AM 42.4406 -84.2778 282° West 379 436 21,900 1,900 Climbing Cleveland Center
Tue 10:15:24 AM 42.4631 -84.4197 282° West 385 443 23,800 1,340 Climbing Cleveland Center
Tue 10:15:58 AM 42.4733 -84.4819 283° West 389 448 24,000 1,125 Climbing Chicago Center
Tue 10:17:00 AM 42.4917 -84.6297 280° West 397 457 25,600 1,452 Climbing Chicago Center
Tue 10:18:02 AM 42.5325 -84.8072 287° West 422 486 27,000 1,355 Climbing Chicago Center
Tue 10:19:04 AM 42.5719 -84.9586 290° West 425 489 28,400 1,548 Climbing Chicago Center
Tue 10:20:06 AM 42.5947 -85.1153 281° West 429 494 30,200 1,645 Climbing Chicago Center
Tue 10:21:08 AM 42.5933 -85.2717 269° West 421 484 31,800 1,113 Climbing Chicago Center
Tue 10:22:10 AM 42.5744 -85.4250 261° West 413 475 32,500 968 Climbing Chicago Center
Tue 10:23:12 AM 42.5539 -85.5806 260° West 417 480 33,800 1,597 Climbing Chicago Center
Tue 10:24:14 AM 42.5342 -85.7339 260° West 414 476 35,800 1,500 Climbing Chicago Center
Tue 10:25:16 AM 42.5103 -85.9119 260° West 402 463 36,900 871 Climbing Chicago Center
Tue 10:26:18 AM 42.4894 -86.0642 260° West 409 471 37,600 532 Climbing Chicago Center
Tue 10:27:20 AM 42.4686 -86.2178 260° West 413 475 38,000 194 Climbing Chicago Center
Tue 10:28:22 AM 42.4472 -86.3750 260° West 420 483 38,000  Level Chicago Center
Tue 10:29:24 AM 42.4258 -86.5292 259° West 418 481 38,000  Level Chicago Center
Tue 10:30:26 AM 42.4050 -86.6875 260° West 412 474 38,000  Level Chicago Center
Tue 10:31:28 AM 42.3847 -86.8386 260° West 412 474 38,000  Level Chicago Center
Tue 10:32:30 AM 42.3603 -87.0181 260° West 410 472 38,000  Level Chicago Center
Tue 10:33:32 AM 42.3372 -87.1606 258° West 398 458 38,000  Level Chicago Center
Tue 10:34:34 AM 42.3172 -87.3056 259° West 396 456 38,000  Level Chicago Center
Tue 10:35:36 AM 42.2953 -87.4511 259° West 399 459 38,000  Level Chicago Center
Tue 10:36:38 AM 42.2742 -87.5981 259° West 402 463 38,000  Level Chicago Center
Tue 10:37:40 AM 42.2356 -87.7669 253° West 394 453 38,000  Level Chicago Center
Tue 10:38:42 AM 42.1589 -87.8669 224° Southwest 392 451 38,000  Level Chicago Center
Tue 10:39:44 AM 42.0781 -87.9628 221° Southwest 390 449 38,000  Level Chicago Center
Tue 10:40:46 AM 41.9958 -88.0583 221° Southwest 393 452 38,000  Level Chicago Center
Tue 10:41:48 AM 41.9136 -88.1528 221° Southwest 394 453 38,000  Level Chicago Center
Tue 10:42:50 AM 41.8658 -88.3136 248° West 400 460 38,000  Level Chicago Center
Tue 10:43:52 AM 41.8317 -88.4503 251° West 395 455 38,000  Level Chicago Center
Tue 10:44:54 AM 41.7969 -88.5864 251° West 392 451 38,000  Level Chicago Center
Tue 10:45:56 AM 41.7625 -88.7192 251° West 385 443 38,000  Level Chicago Center
Tue 10:46:58 AM 41.7214 -88.8808 251° West 386 444 38,000  Level Chicago Center
Tue 10:48:00 AM 41.6867 -89.0150 251° West 387 445 38,000  Level Chicago Center
Tue 10:49:02 AM 41.6514 -89.1497 251° West 387 445 38,000  Level Chicago Center
Tue 10:50:04 AM 41.6167 -89.2861 251° West 390 449 38,000  Level Chicago Center
Tue 10:51:06 AM 41.5811 -89.4214 251° West 390 449 38,000  Level Chicago Center
Tue 10:52:08 AM 41.5422 -89.5667 250° West 383 441 38,000  Level Chicago Center
Tue 10:53:09 AM 41.5078 -89.6992 251° West 381 438 38,000  Level Chicago Center
Tue 10:54:11 AM 41.4719 -89.8303 250° West 379 436 38,000  Level Chicago Center
Tue 10:55:13 AM 41.4300 -89.9889 251° West 380 437 38,000  Level Chicago Center
Tue 10:56:15 AM 41.3944 -90.1219 250° West 382 440 38,000  Level Chicago Center
Tue 10:57:17 AM 41.3581 -90.2544 250° West 383 441 38,000  Level Chicago Center
Tue 10:58:19 AM 41.3228 -90.3842 250° West 378 435 38,000  Level Chicago Center
Tue 10:59:21 AM 41.2889 -90.5122 251° West 373 429 38,000  Level Chicago Center
Tue 11:00:23 AM 41.2514 -90.6436 249° West 378 435 38,000  Level Chicago Center
Tue 11:01:25 AM 41.2089 -90.7967 250° West 371 427 38,000  Level Chicago Center
Tue 11:02:26 AM 41.1728 -90.9236 249° West 368 423 38,000  Level Chicago Center
Tue 11:03:28 AM 41.1381 -91.0478 250° West 362 417 38,000  Level Chicago Center
Tue 11:04:30 AM 41.1031 -91.1689 249° West 353 406 38,000  Level Chicago Center
Tue 11:05:32 AM 41.0692 -91.2939 250° West 360 414 38,000  Level Chicago Center
Tue 11:06:34 AM 41.0331 -91.4200 249° West 365 420 38,000  Level Chicago Center
Tue 11:07:36 AM 40.9964 -91.5453 249° West 365 420 38,000 -387 Level Chicago Center
Tue 11:08:38 AM 40.9569 -91.6800 249° West 367 422 37,200 -829 Descending Chicago Center
Tue 11:09:39 AM 40.9214 -91.8039 249° West 364 419 36,300 -1,024 Descending Chicago Center
Tue 11:10:41 AM 40.8786 -91.9522 249° West 364 419 35,100 -1,016 Descending Chicago Center
Tue 11:11:43 AM 40.8419 -92.0775 249° West 369 425 34,200 -532 Descending Chicago Center
Tue 11:12:45 AM 40.8053 -92.2028 249° West 371 427 34,000 -97 Descending Chicago Center
Tue 11:13:47 AM 40.7689 -92.3264 249° West 368 423 34,000  Level Chicago Center
Tue 11:14:49 AM 40.7314 -92.4497 248° West 367 422 34,000  Level Chicago Center
Tue 11:15:51 AM 40.6867 -92.5989 248° West 369 425 34,000  Level Chicago Center
Tue 11:16:53 AM 40.6508 -92.7239 249° West 371 427 34,000  Level Chicago Center
Tue 11:17:54 AM 40.6128 -92.8469 248° West 369 425 34,000  Level Chicago Center
Tue 11:18:29 AM 40.5908 -92.9200 248° West 367 422 34,000  Level Kansas City Center
Tue 11:19:31 AM 40.5531 -93.0419 248° West 365 420 34,000  Level Kansas City Center
Tue 11:20:33 AM 40.5169 -93.1631 249° West 362 417 34,000  Level Kansas City Center
Tue 11:21:34 AM 40.4722 -93.3061 248° West 359 413 34,000  Level Kansas City Center
Tue 11:22:36 AM 40.4358 -93.4261 248° West 357 411 34,000  Level Kansas City Center
Tue 11:23:38 AM 40.3989 -93.5458 248° West 357 411 34,000  Level Kansas City Center
Tue 11:24:40 AM 40.3619 -93.6639 248° West 356 410 34,000  Level Kansas City Center
Tue 11:25:42 AM 40.3253 -93.7831 248° West 355 409 34,000  Level Kansas City Center
Tue 11:26:44 AM 40.2808 -93.9253 248° West 355 409 34,000  Level Kansas City Center
Tue 11:27:46 AM 40.2433 -94.0458 248° West 359 413 34,000  Level Kansas City Center
Tue 11:28:48 AM 40.2025 -94.1739 247° West 358 412 34,000  Level Kansas City Center
Tue 11:29:50 AM 40.1647 -94.2869 246° West 357 411 34,000  Level Kansas City Center
Tue 11:30:52 AM 40.1222 -94.4217 248° West 359 413 34,000  Level Kansas City Center
Tue 11:31:54 AM 40.0850 -94.5383 247° West 362 417 34,000  Level Kansas City Center
Tue 11:32:56 AM 40.0417 -94.6733 247° West 362 417 34,000  Level Kansas City Center
Tue 11:33:59 AM 40.0044 -94.7883 247° West 361 415 34,000  Level Kansas City Center
Tue 11:35:01 AM 39.9608 -94.9244 247° West 364 419 34,000  Level Kansas City Center
Tue 11:36:03 AM 39.9194 -95.0361 244° Southwest 361 415 34,000  Level Kansas City Center
Tue 11:37:05 AM 39.8703 -95.1694 244° Southwest 365 420 34,000  Level Kansas City Center
Tue 11:38:07 AM 39.8281 -95.2833 244° Southwest 367 422 34,000  Level Kansas City Center
Tue 11:39:09 AM 39.7781 -95.4175 244° Southwest 369 425 34,000  Level Kansas City Center
Tue 11:40:11 AM 39.7350 -95.5325 244° Southwest 371 427 34,000  Level Kansas City Center
Tue 11:41:13 AM 39.6853 -95.6681 245° Southwest 373 429 34,000  Level Kansas City Center
Tue 11:42:15 AM 39.6406 -95.7839 243° Southwest 375 432 34,000  Level Kansas City Center
Tue 11:43:17 AM 39.5875 -95.9217 243° Southwest 382 440 34,000  Level Kansas City Center
Tue 11:44:19 AM 39.5439 -96.0375 244° Southwest 376 433 34,000  Level Kansas City Center
Tue 11:45:21 AM 39.4981 -96.1561 243° Southwest 383 441 34,000  Level Kansas City Center
Tue 11:46:23 AM 39.4489 -96.2908 245° Southwest 376 433 34,000  Level Kansas City Center
Tue 11:47:25 AM 39.4042 -96.4075 244° Southwest 377 434 34,000  Level Kansas City Center
Tue 11:48:27 AM 39.3489 -96.5444 242° Southwest 383 441 34,000  Level Kansas City Center
Tue 11:49:29 AM 39.3053 -96.6600 244° Southwest 376 433 34,000  Level Kansas City Center
Tue 11:50:31 AM 39.2531 -96.7925 243° Southwest 370 426 34,000  Level Kansas City Center
Tue 11:51:33 AM 39.2097 -96.9044 243° Southwest 368 423 34,000  Level Kansas City Center
Tue 11:52:35 AM 39.1589 -97.0364 244° Southwest 368 423 34,000  Level Kansas City Center
Tue 11:53:37 AM 39.1147 -97.1483 243° Southwest 368 423 34,000  Level Kansas City Center
Tue 11:54:39 AM 39.0611 -97.2803 242° Southwest 370 426 34,000  Level Kansas City Center
Tue 11:55:41 AM 39.0169 -97.3919 243° Southwest 366 421 34,000  Level Kansas City Center
Tue 11:56:43 AM 38.9647 -97.5236 243° Southwest 370 426 34,000  Level Kansas City Center
Tue 11:57:45 AM 38.9197 -97.6378 243° Southwest 374 430 34,000  Level Kansas City Center
Tue 11:58:47 AM 38.8764 -97.7808 249° West 386 444 34,000  Level Kansas City Center
Tue 11:59:49 AM 38.8369 -97.9094 249° West 378 435 34,000  Level Kansas City Center
Tue 12:00:51 PM 38.7972 -98.0439 249° West 382 440 34,000  Level Kansas City Center
Tue 12:01:52 PM 38.7575 -98.1769 249° West 384 442 34,000  Level Kansas City Center
Tue 12:02:54 PM 38.7206 -98.2997 249° West 384 442 34,000  Level Kansas City Center
Tue 12:03:56 PM 38.6803 -98.4322 249° West 384 442 34,000  Level Kansas City Center
Tue 12:04:58 PM 38.6414 -98.5639 249° West 383 441 34,000  Level Kansas City Center
Tue 12:06:00 PM 38.5997 -98.6956 248° West 383 441 34,000  Level Kansas City Center
Tue 12:07:02 PM 38.5592 -98.8297 249° West 388 447 34,000  Level Kansas City Center
Tue 12:08:04 PM 38.5225 -98.9461 248° West 394 453 34,000  Level Kansas City Center
Tue 12:09:06 PM 38.4797 -99.0942 250° West 399 459 34,000 290 Level Kansas City Center
Tue 12:10:08 PM 38.4372 -99.2186 246° West 400 460 34,600 919 Climbing Kansas City Center
Tue 12:11:10 PM 38.3897 -99.3703 248° West 409 471 35,900 677 Climbing Kansas City Center
Tue 12:12:12 PM 38.3486 -99.5011 248° West 415 478 36,000 48 Climbing Kansas City Center
Tue 12:13:14 PM 38.3006 -99.6550 248° West 419 482 36,000  Level Kansas City Center
Tue 12:14:16 PM 38.2586 -99.7853 248° West 418 481 36,000  Level Kansas City Center
Tue 12:15:55 PM 38.1825 -100.0261 248° West 419 482 36,000  Level Albuquerque Center
Tue 12:16:19 PM 38.1683 -100.0708 248° West 419 482 36,000  Level Kansas City Center
Tue 12:17:21 PM 38.1181 -100.2236 247° West 421 484 36,000  Level Kansas City Center
Tue 12:18:23 PM 38.0767 -100.3547 248° West 420 483 36,000  Level Kansas City Center
Tue 12:19:25 PM 38.0264 -100.5086 248° West 423 487 36,000  Level Kansas City Center
Tue 12:21:29 PM 37.9322 -100.7936 247° West 426 490 36,000  Level Kansas City Center
Tue 12:22:31 PM 37.8892 -100.9236 247° West 424 488 36,000  Level Kansas City Center
Tue 12:23:32 PM 37.8389 -101.0753 247° West 425 489 36,000  Level Kansas City Center
Tue 12:24:34 PM 37.7950 -101.2069 247° West 427 491 36,000  Level Kansas City Center
Tue 12:25:36 PM 37.7425 -101.3622 247° West 431 496 36,000  Level Kansas City Center
Tue 12:26:38 PM 37.6972 -101.4947 247° West 432 497 36,000  Level Kansas City Center
Tue 12:27:40 PM 37.6447 -101.6528 247° West 437 503 36,000  Level Kansas City Center
Tue 12:28:42 PM 37.5989 -101.7861 247° West 435 501 36,000  Level Kansas City Center
Tue 12:29:43 PM 37.5533 -101.9197 247° West 434 499 36,000  Level Kansas City Center
Tue 12:30:45 PM 37.4994 -102.0744 246° West 433 498 36,000  Level Kansas City Center
Tue 12:31:47 PM 37.4542 -102.2078 247° West 432 497 36,000  Level Kansas City Center
Tue 12:32:49 PM 37.4000 -102.3622 246° West 432 497 36,000  Level Kansas City Center
Tue 12:33:26 PM 37.3697 -102.4542 248° West 435 501 36,000  Level Albuquerque Center
Tue 12:34:28 PM 37.3233 -102.5861 246° West 432 497 36,000  Level Albuquerque Center
Tue 12:35:30 PM 37.2708 -102.7394 247° West 428 493 36,000  Level Albuquerque Center
Tue 12:36:32 PM 37.2272 -102.8714 247° West 426 490 36,000  Level Albuquerque Center
Tue 12:37:34 PM 37.1856 -103.0031 248° West 424 488 36,000  Level Albuquerque Center
Tue 12:38:36 PM 37.1347 -103.1581 248° West 428 493 36,000  Level Albuquerque Center
Tue 12:39:38 PM 37.0900 -103.2903 247° West 429 494 36,000  Level Albuquerque Center
Tue 12:40:40 PM 37.0397 -103.4461 248° West 430 495 36,000  Level Albuquerque Center
Tue 12:41:41 PM 36.9953 -103.5797 247° West 431 496 36,000  Level Albuquerque Center
Tue 12:42:43 PM 36.9511 -103.7131 248° West 431 496 36,000  Level Albuquerque Center
Tue 12:43:45 PM 36.9000 -103.8675 248° West 430 495 36,000  Level Albuquerque Center
Tue 12:44:47 PM 36.8553 -103.9989 247° West 428 493 36,000  Level Albuquerque Center
Tue 12:45:49 PM 36.8042 -104.1506 247° West 424 488 36,000 484 Level Albuquerque Center
Tue 12:46:51 PM 36.7572 -104.2842 246° West 432 497 37,000 968 Climbing Albuquerque Center
Tue 12:47:53 PM 36.7044 -104.4428 248° West 439 505 38,000 484 Climbing Albuquerque Center
Tue 12:48:55 PM 36.6536 -104.5889 247° West 443 510 38,000  Level Albuquerque Center
Tue 12:49:57 PM 36.6056 -104.7306 247° West 443 510 38,000  Level Albuquerque Center
Tue 12:50:59 PM 36.5564 -104.8697 246° West 441 507 38,000  Level Albuquerque Center
Tue 12:52:01 PM 36.5083 -105.0094 247° West 438 504 38,000  Level Albuquerque Center
Tue 12:53:03 PM 36.4600 -105.1483 247° West 436 502 38,000  Level Albuquerque Center
Tue 12:54:05 PM 36.4103 -105.2889 246° West 442 509 38,000  Level Albuquerque Center
Tue 12:55:07 PM 36.3608 -105.4289 246° West 442 509 38,000  Level Albuquerque Center
Tue 12:56:09 PM 36.3047 -105.5869 246° West 433 498 38,000  Level Albuquerque Center
Tue 12:57:11 PM 36.2564 -105.7217 246° West 431 496 38,000  Level Albuquerque Center
Tue 12:58:13 PM 36.2092 -105.8544 246° West 426 490 38,000  Level Albuquerque Center
Tue 12:59:15 PM 36.1631 -105.9903 247° West 429 494 38,000  Level Albuquerque Center
Tue 01:00:17 PM 36.1142 -106.1186 245° Southwest 419 482 38,000  Level Albuquerque Center
Tue 01:01:19 PM 36.0675 -106.2519 247° West 422 486 38,000  Level Albuquerque Center
Tue 01:02:21 PM 36.0092 -106.4131 246° West 427 491 38,000  Level Albuquerque Center
Tue 01:03:23 PM 35.9611 -106.5461 246° West 427 491 38,000  Level Albuquerque Center
Tue 01:04:25 PM 35.9119 -106.6786 245° Southwest 426 490 38,000  Level Albuquerque Center
Tue 01:05:27 PM 35.8558 -106.8319 246° West 428 493 38,000  Level Albuquerque Center
Tue 01:06:29 PM 35.8083 -106.9611 246° West 430 495 38,000  Level Albuquerque Center
Tue 01:07:32 PM 35.7600 -107.0894 245° Southwest 432 497 38,000  Level Albuquerque Center
Tue 01:08:34 PM 35.7042 -107.2369 245° Southwest 428 493 38,000  Level Albuquerque Center
Tue 01:09:36 PM 35.6575 -107.3619 245° Southwest 422 486 38,000  Level Albuquerque Center
Tue 01:10:38 PM 35.6036 -107.5086 246° West 422 486 38,000 -48 Level Albuquerque Center
Tue 01:11:40 PM 35.5567 -107.6325 245° Southwest 420 483 37,900 -484 Descending Albuquerque Center
Tue 01:12:42 PM 35.5011 -107.7789 245° Southwest 421 484 37,000 -871 Descending Albuquerque Center
Tue 01:13:44 PM 35.4531 -107.9042 245° Southwest 423 487 36,100 -484 Descending Albuquerque Center
Tue 01:14:46 PM 35.3972 -108.0497 245° Southwest 421 484 36,000 -387 Descending Albuquerque Center
Tue 01:15:48 PM 35.3497 -108.1747 245° Southwest 422 486 35,300 -871 Descending Albuquerque Center
Tue 01:16:50 PM 35.2942 -108.3183 245° Southwest 419 482 34,200 -629 Descending Albuquerque Center
Tue 01:17:52 PM 35.2450 -108.4453 245° Southwest 424 488 34,000 -97 Descending Albuquerque Center
Tue 01:18:54 PM 35.1967 -108.5706 245° Southwest 425 489 34,000  Level Albuquerque Center
Tue 01:19:56 PM 35.1411 -108.7181 245° Southwest 426 490 34,000 -194 Level Albuquerque Center
Tue 01:20:58 PM 35.0944 -108.8450 246° West 426 490 33,600 -677 Descending Albuquerque Center
Tue 01:22:00 PM 35.0386 -108.9953 246° West 431 496 32,600 -774 Descending Albuquerque Center
Tue 01:23:02 PM 34.9900 -109.1231 245° Southwest 433 498 32,000 -290 Descending Albuquerque Center
Tue 01:24:04 PM 34.9339 -109.2739 246° West 436 502 32,000  Level Albuquerque Center
Tue 01:25:06 PM 34.8853 -109.4011 245° Southwest 433 498 32,000  Level Albuquerque Center
Tue 01:26:08 PM 34.8256 -109.5469 244° Southwest 432 497 32,000  Level Albuquerque Center
Tue 01:27:10 PM 34.7778 -109.6756 246° West 432 497 32,000  Level Albuquerque Center
Tue 01:28:12 PM 34.7289 -109.8031 245° Southwest 434 499 32,000  Level Albuquerque Center
Tue 01:29:14 PM 34.6733 -109.9514 246° West 432 497 32,000  Level Albuquerque Center
Tue 01:30:15 PM 34.6272 -110.0778 246° West 430 495 32,000  Level Albuquerque Center
Tue 01:31:17 PM 34.5753 -110.2286 247° West 431 496 32,000  Level Albuquerque Center
Tue 01:32:19 PM 34.5278 -110.3519 245° Southwest 424 488 32,000  Level Albuquerque Center
Tue 01:33:21 PM 34.4767 -110.4828 245° Southwest 418 481 32,000 -387 Level Albuquerque Center
Tue 01:34:23 PM 34.4314 -110.6058 246° West 407 468 31,200 -1,355 Descending Albuquerque Center
Tue 01:35:25 PM 34.3858 -110.7239 245° Southwest 393 452 29,200 -1,935 Descending Albuquerque Center
Tue 01:36:27 PM 34.3328 -110.8336 240° Southwest 385 443 27,200 -2,129 Descending Albuquerque Center
Tue 01:37:29 PM 34.2411 -110.9419 224° Southwest 380 437 24,800 -2,129 Descending Albuquerque Center
Tue 01:38:31 PM 34.1675 -111.0378 227° Southwest 384 442 22,800 -1,984 Descending Albuquerque Center
Tue 01:39:33 PM 34.0947 -111.1308 227° Southwest 384 442 20,700 -1,935 Descending Albuquerque Center
Tue 01:40:35 PM 34.0247 -111.2208 227° Southwest 373 429 18,800 -1,790 Descending Albuquerque Center
Tue 01:41:37 PM 33.9589 -111.3050 227° Southwest 352 405 17,000 -1,597 Descending Albuquerque Center
Tue 01:42:39 PM 33.8950 -111.3886 227° Southwest 340 391 15,500 -1,306 Descending Albuquerque Center
Tue 01:43:41 PM 33.8453 -111.4731 235° Southwest 311 358 14,300 -1,500 Descending Albuquerque Center
Tue 01:44:43 PM 33.7925 -111.5756 238° Southwest 299 344 12,400 -1,645 Descending Albuquerque Center
Tue 01:45:45 PM 33.7478 -111.6592 237° Southwest 295 339 10,900 -1,161 Descending Albuquerque Center
Tue 01:46:47 PM 33.7033 -111.7406 237° Southwest 290 334 10,000 -439 Descending Albuquerque Center
Tue 01:47:48 PM 33.6594 -111.8211 237° Southwest 287 330 10,000  Level Albuquerque Center
Tue 01:48:50 PM 33.6147 -111.9019 236° Southwest 289 333 10,000  Level Albuquerque Center
Tue 01:49:14 PM 33.6000 -111.9333 241° Southwest 290 334 10,000 71 Level Phoenix TRACON
Tue 01:50:14 PM 33.5167 -111.9833 207° Southwest 291 335 10,100 -397 Climbing Phoenix TRACON
Tue 01:51:15 PM 33.4333 -112.0167 198° South 294 338 9,200 -1,091 Descending Phoenix TRACON
Tue 01:52:15 PM 33.3667 -112.0500 203° Southwest 291 335 7,900 -1,165 Descending Phoenix TRACON
Tue 01:52:58 PM 33.3331 -112.0922 226° Southwest 279 321 7,200 -743 Descending Albuquerque Center
Tue 01:54:00 PM 33.3372 -112.1742 274° West 249 287 6,600 -629 Descending Albuquerque Center
Tue 01:55:02 PM 33.3506 -112.2414 283° West 210 242 5,900 -871 Descending Albuquerque Center
Tue 01:56:04 PM 33.4025 -112.2422 359° North 202 232 4,800 -1,065 Descending Albuquerque Center
Tue 01:57:06 PM 33.4283 -112.1897 59° Northeast 186 214 3,700 -1,045 Descending Albuquerque Center
Tue 01:58:16 PM 33.4333 -112.1167 85° East 183 211 2,500 -923 Descending Phoenix TRACON
Tue 01:59:16 PM 33.4333 -112.0667 90° East 142 163 1,700 -800 Descending Phoenix TRACON

Login

Don't have an account? Register now (free) for customized features, flight alerts, and more!